Flight Track Log - Related Links

Times and Time Zones

All times are in EDT time to prevent confusion due to time zone crossing. See the AMF1792 flight status page for this flight to view local times or setup timezone preferences in your user account.


Time Position Orientation Groundspeed Altitude Reporting Facility
EDT Latitude Longitude Course Direction KTS MPH feet Rate Location/Type
Wed 05:15:57 AM 32.9000 -97.0500 232° Southwest 141 162 1,000  Level Dallas / Fort Worth TRACON
Wed 05:17:07 AM 32.8667 -97.1000 232° Southwest 159 183 3,000 1,523 Climbing Dallas / Fort Worth TRACON
Wed 05:18:07 AM 32.8833 -97.1500 292° West 170 196 4,300 1,417 Climbing Dallas / Fort Worth TRACON
Wed 05:19:14 AM 32.9000 -97.2167 287° West 178 205 6,000 1,476 Climbing Dallas / Fort Worth TRACON
Wed 05:20:13 AM 32.9167 -97.2667 292° West 181 208 7,400 1,444 Climbing Dallas / Fort Worth TRACON
Wed 05:21:02 AM 32.9336 -97.3194 291° West 181 208 8,600 1,321 Climbing Fort Worth Center
Wed 05:22:02 AM 32.9503 -97.3739 290° West 192 221 9,800 700 Climbing Fort Worth Center
Wed 05:23:02 AM 32.9711 -97.4381 291° West 198 228 10,000 100 Climbing Fort Worth Center
Wed 05:24:02 AM 32.9900 -97.5000 290° West 208 239 10,000  Level Fort Worth Center
Wed 05:25:02 AM 33.0150 -97.5744 292° West 213 245 10,000  Level Fort Worth Center
Wed 05:26:02 AM 33.0397 -97.6414 294° West 213 245 10,000  Level Fort Worth Center
Wed 05:27:02 AM 33.0583 -97.7008 290° West 213 245 10,000  Level Fort Worth Center
Wed 05:28:02 AM 33.0833 -97.7731 292° West 213 245 10,000  Level Fort Worth Center
Wed 05:29:02 AM 33.1039 -97.8325 292° West 213 245 10,000  Level Fort Worth Center
Wed 05:30:02 AM 33.1289 -97.9047 292° West 213 245 10,000  Level Fort Worth Center
Wed 05:31:02 AM 33.1472 -97.9642 290° West 213 245 10,000  Level Fort Worth Center
Wed 05:32:02 AM 33.1636 -98.0389 285° West 213 245 10,000  Level Fort Worth Center
Wed 05:33:02 AM 33.1800 -98.0983 288° West 213 245 10,000  Level Fort Worth Center
Wed 05:34:02 AM 33.1964 -98.1731 285° West 213 245 10,000  Level Fort Worth Center
Wed 05:35:02 AM 33.2106 -98.2353 285° West 213 245 10,000  Level Fort Worth Center
Wed 05:36:02 AM 33.2267 -98.3100 284° West 213 245 10,000  Level Fort Worth Center
Wed 05:37:02 AM 33.2408 -98.3697 286° West 218 251 10,000  Level Fort Worth Center
Wed 05:38:02 AM 33.2592 -98.4444 286° West 218 251 10,000  Level Fort Worth Center
Wed 05:39:02 AM 33.2731 -98.5142 283° West 218 251 10,000  Level Fort Worth Center
Wed 05:40:02 AM 33.2892 -98.5839 285° West 218 251 10,000  Level Fort Worth Center
Wed 05:41:02 AM 33.3075 -98.6464 289° West 223 257 10,000  Level Fort Worth Center
Wed 05:42:02 AM 33.3233 -98.7236 284° West 223 257 10,000  Level Fort Worth Center
Wed 05:43:02 AM 33.3392 -98.7933 285° West 223 257 10,000  Level Fort Worth Center
Wed 05:44:02 AM 33.3550 -98.8658 285° West 223 257 10,000  Level Fort Worth Center
Wed 05:45:02 AM 33.3711 -98.9308 287° West 223 257 10,000  Level Fort Worth Center
Wed 05:46:02 AM 33.3869 -99.0031 285° West 223 257 10,000  Level Fort Worth Center
Wed 05:47:02 AM 33.4044 -99.0831 285° West 223 257 10,000  Level Fort Worth Center
Wed 05:48:02 AM 33.4183 -99.1556 283° West 223 257 10,000  Level Fort Worth Center
Wed 05:49:02 AM 33.4278 -99.2231 280° West 223 257 10,000  Level Fort Worth Center
Wed 05:50:02 AM 33.4392 -99.2978 280° West 223 257 10,000  Level Fort Worth Center
Wed 05:51:02 AM 33.4506 -99.3653 281° West 223 257 10,000 50 Level Fort Worth Center
Wed 05:52:02 AM 33.4619 -99.4378 281° West 223 257 10,100 50 Climbing Fort Worth Center
Wed 05:53:02 AM 33.4733 -99.5103 281° West 223 257 10,100  Level Fort Worth Center
Wed 05:54:02 AM 33.4847 -99.5753 282° West 217 250 10,100  Level Fort Worth Center
Wed 05:55:02 AM 33.4961 -99.6453 281° West 217 250 10,100  Level Fort Worth Center
Wed 05:56:02 AM 33.5094 -99.7128 283° West 217 250 10,100  Level Fort Worth Center
Wed 05:57:02 AM 33.5206 -99.7831 281° West 222 255 10,100  Level Fort Worth Center
Wed 05:58:02 AM 33.5339 -99.8531 283° West 222 255 10,100 -50 Level Fort Worth Center
Wed 05:59:02 AM 33.5450 -99.9208 281° West 222 255 10,000 -50 Descending Fort Worth Center
Wed 06:00:02 AM 33.5561 -99.9958 280° West 222 255 10,000 50 Level Fort Worth Center
Wed 06:01:02 AM 33.5650 -100.0633 279° West 222 255 10,100 50 Climbing Fort Worth Center
Wed 06:02:02 AM 33.5697 -100.1333 275° West 217 250 10,100  Level Fort Worth Center
Wed 06:03:02 AM 33.5786 -100.2058 278° West 222 255 10,100  Level Fort Worth Center
Wed 06:04:02 AM 33.5833 -100.2758 275° West 217 250 10,100  Level Fort Worth Center
Wed 06:05:02 AM 33.5922 -100.3433 279° West 217 250 10,100  Level Fort Worth Center
Wed 06:06:02 AM 33.5989 -100.4133 277° West 217 250 10,100  Level Fort Worth Center
Wed 06:07:02 AM 33.6097 -100.4811 281° West 217 250 10,100  Level Fort Worth Center
Wed 06:08:02 AM 33.6142 -100.5561 274° West 217 250 10,100  Level Fort Worth Center
Wed 06:09:02 AM 33.6186 -100.6261 274° West 217 250 10,100  Level Fort Worth Center
Wed 06:10:02 AM 33.6278 -100.6814 281° West 222 255 10,100  Level Fort Worth Center
Wed 06:11:02 AM 33.6317 -100.7664 273° West 217 250 10,100  Level Fort Worth Center
Wed 06:11:45 AM 33.6219 -100.8158 257° West 203 234 10,100  Level Fort Worth Center
Wed 06:12:46 AM 33.6117 -100.8903 261° West 213 245 10,100  Level Fort Worth Center
Wed 06:13:46 AM 33.5994 -100.9547 257° West 207 238 10,100  Level Fort Worth Center
Wed 06:14:47 AM 33.5892 -101.0214 260° West 203 234 10,100  Level Fort Worth Center
Wed 06:15:48 AM 33.5747 -101.0883 255° West 208 239 10,100 -267 Level Fort Worth Center
Wed 06:17:02 AM 33.5703 -101.1703 266° West 218 251 9,500 -397 Descending Fort Worth Center
Wed 06:17:49 AM 33.5811 -101.2206 285° West 207 238 9,300 -561 Descending Fort Worth Center
Wed 06:18:49 AM 33.6000 -101.2839 290° West 187 215 8,500 -661 Descending Fort Worth Center
Wed 06:19:56 AM 33.6231 -101.3472 294° West 189 217 7,900 -563 Descending Fort Worth Center
Wed 06:20:57 AM 33.6422 -101.4078 291° West 193 222 7,300 -545 Descending Fort Worth Center
Wed 06:21:57 AM 33.6611 -101.4661 291° West 194 223 6,800 -446 Descending Fort Worth Center
Wed 06:22:58 AM 33.6819 -101.5269 292° West 195 224 6,400 -393 Descending Fort Worth Center
Wed 06:23:59 AM 33.7031 -101.5881 293° West 195 224 6,000 -198 Descending Fort Worth Center
Wed 06:24:59 AM 33.7236 -101.6564 290° West 206 237 6,000 -298 Level Fort Worth Center
Wed 06:26:00 AM 33.7569 -101.7178 303° West 220 253 5,400 -446 Descending Fort Worth Center
Wed 06:27:00 AM 33.7992 -101.7700 314° West 216 249 5,100 -365 Descending Fort Worth Center
Wed 06:27:55 AM 33.7908 -101.8219 259° West 197 227 4,700 -155 Descending Fort Worth Center
Wed 06:28:56 AM 33.7489 -101.8350 195° South 147 169 4,800 -198 Climbing Fort Worth Center
Wed 06:29:56 AM 33.7069 -101.8353 180° South 142 163 4,300 -500 Descending Fort Worth Center
Wed 06:31:00 AM 33.6637 -101.8206 270° West  Level Estimated
Wed 06:38:00 AM 33.6637 -101.8206 270° West  Level Estimated

Login

Don't have an account? Register now (free) for customized features, flight alerts, and more!